sensor_id;sensor_type;location;lat;lon;timestamp;P1;durP1;ratioP1;P2;durP2;ratioP2
1296;SDS011;641;48.492;9.184;2022-09-01T00:01:42;15.50;;;10.67;;
1296;SDS011;641;48.492;9.184;2022-09-01T00:04:11;17.23;;;9.80;;
1296;SDS011;641;48.492;9.184;2022-09-01T00:06:39;18.90;;;11.53;;
1296;SDS011;641;48.492;9.184;2022-09-01T00:09:10;26.20;;;17.43;;
1296;SDS011;641;48.492;9.184;2022-09-01T00:11:39;21.50;;;13.67;;
1296;SDS011;641;48.492;9.184;2022-09-01T00:14:07;18.70;;;13.60;;
1296;SDS011;641;48.492;9.184;2022-09-01T00:16:33;20.80;;;13.43;;
1296;SDS011;641;48.492;9.184;2022-09-01T00:18:59;19.60;;;13.00;;
1296;SDS011;641;48.492;9.184;2022-09-01T00:21:26;17.87;;;12.67;;
1296;SDS011;641;48.492;9.184;2022-09-01T00:23:54;20.53;;;13.37;;
1296;SDS011;641;48.492;9.184;2022-09-01T00:26:20;21.43;;;13.57;;
1296;SDS011;641;48.492;9.184;2022-09-01T00:28:46;18.40;;;13.10;;
1296;SDS011;641;48.492;9.184;2022-09-01T00:31:12;18.67;;;11.57;;
1296;SDS011;641;48.492;9.184;2022-09-01T00:33:39;19.70;;;13.10;;
1296;SDS011;641;48.492;9.184;2022-09-01T00:36:05;15.80;;;11.20;;
1296;SDS011;641;48.492;9.184;2022-09-01T00:38:31;18.63;;;12.77;;
1296;SDS011;641;48.492;9.184;2022-09-01T00:40:58;19.90;;;12.80;;
1296;SDS011;641;48.492;9.184;2022-09-01T00:46:23;17.90;;;11.63;;
1296;SDS011;641;48.492;9.184;2022-09-01T00:48:52;18.17;;;12.03;;
1296;SDS011;641;48.492;9.184;2022-09-01T00:51:21;17.30;;;11.50;;
1296;SDS011;641;48.492;9.184;2022-09-01T00:53:47;18.30;;;11.10;;
1296;SDS011;641;48.492;9.184;2022-09-01T00:56:13;17.10;;;12.07;;
1296;SDS011;641;48.492;9.184;2022-09-01T00:58:40;17.73;;;12.80;;
1296;SDS011;641;48.492;9.184;2022-09-01T01:01:07;18.10;;;12.57;;
1296;SDS011;641;48.492;9.184;2022-09-01T01:03:34;20.57;;;12.97;;
1296;SDS011;641;48.492;9.184;2022-09-01T01:06:00;15.73;;;11.23;;
1296;SDS011;641;48.492;9.184;2022-09-01T01:08:32;18.13;;;10.83;;
1296;SDS011;641;48.492;9.184;2022-09-01T01:11:08;15.47;;;10.80;;
1296;SDS011;641;48.492;9.184;2022-09-01T01:13:48;17.63;;;11.60;;
1296;SDS011;641;48.492;9.184;2022-09-01T01:16:18;22.27;;;12.70;;
1296;SDS011;641;48.492;9.184;2022-09-01T01:18:46;16.97;;;10.87;;
1296;SDS011;641;48.492;9.184;2022-09-01T01:21:14;20.53;;;11.20;;
1296;SDS011;641;48.492;9.184;2022-09-01T01:26:44;21.73;;;12.13;;
1296;SDS011;641;48.492;9.184;2022-09-01T01:29:11;17.77;;;12.17;;
1296;SDS011;641;48.492;9.184;2022-09-01T01:31:37;16.93;;;11.93;;
1296;SDS011;641;48.492;9.184;2022-09-01T01:34:03;23.17;;;13.60;;
1296;SDS011;641;48.492;9.184;2022-09-01T01:36:32;19.10;;;11.87;;
1296;SDS011;641;48.492;9.184;2022-09-01T01:39:02;15.50;;;10.90;;
1296;SDS011;641;48.492;9.184;2022-09-01T01:41:32;18.73;;;11.10;;
1296;SDS011;641;48.492;9.184;2022-09-01T01:43:59;20.33;;;11.23;;
1296;SDS011;641;48.492;9.184;2022-09-01T01:46:28;22.40;;;13.50;;
1296;SDS011;641;48.492;9.184;2022-09-01T01:48:54;19.03;;;13.23;;
1296;SDS011;641;48.492;9.184;2022-09-01T01:51:20;21.00;;;13.50;;
1296;SDS011;641;48.492;9.184;2022-09-01T01:53:51;21.60;;;13.93;;
1296;SDS011;641;48.492;9.184;2022-09-01T01:56:18;22.03;;;14.70;;
1296;SDS011;641;48.492;9.184;2022-09-01T01:58:46;21.40;;;14.33;;
1296;SDS011;641;48.492;9.184;2022-09-01T02:01:13;15.60;;;9.77;;
1296;SDS011;641;48.492;9.184;2022-09-01T02:03:41;16.40;;;10.30;;
1296;SDS011;641;48.492;9.184;2022-09-01T02:06:08;17.10;;;10.83;;
1296;SDS011;641;48.492;9.184;2022-09-01T02:08:36;23.47;;;15.57;;
1296;SDS011;641;48.492;9.184;2022-09-01T02:11:04;25.67;;;14.90;;
1296;SDS011;641;48.492;9.184;2022-09-01T02:13:31;23.17;;;13.23;;
1296;SDS011;641;48.492;9.184;2022-09-01T02:16:04;20.30;;;10.30;;
1296;SDS011;641;48.492;9.184;2022-09-01T02:18:37;17.40;;;12.17;;
1296;SDS011;641;48.492;9.184;2022-09-01T02:21:11;19.23;;;12.03;;
1296;SDS011;641;48.492;9.184;2022-09-01T02:23:39;23.03;;;16.17;;
1296;SDS011;641;48.492;9.184;2022-09-01T02:26:06;20.90;;;13.30;;
1296;SDS011;641;48.492;9.184;2022-09-01T02:28:35;19.73;;;13.63;;
1296;SDS011;641;48.492;9.184;2022-09-01T02:31:06;27.30;;;18.10;;
1296;SDS011;641;48.492;9.184;2022-09-01T02:33:33;25.77;;;17.37;;
1296;SDS011;641;48.492;9.184;2022-09-01T02:36:01;29.43;;;18.50;;
1296;SDS011;641;48.492;9.184;2022-09-01T02:38:31;24.73;;;18.37;;
1296;SDS011;641;48.492;9.184;2022-09-01T02:40:58;23.03;;;16.33;;
1296;SDS011;641;48.492;9.184;2022-09-01T02:43:26;23.47;;;16.73;;
1296;SDS011;641;48.492;9.184;2022-09-01T02:45:57;22.33;;;16.57;;
1296;SDS011;641;48.492;9.184;2022-09-01T02:48:35;30.87;;;18.30;;
1296;SDS011;641;48.492;9.184;2022-09-01T02:51:03;25.10;;;17.30;;
1296;SDS011;641;48.492;9.184;2022-09-01T02:53:32;24.50;;;16.60;;
1296;SDS011;641;48.492;9.184;2022-09-01T02:55:59;23.40;;;15.30;;
1296;SDS011;641;48.492;9.184;2022-09-01T02:58:27;22.27;;;16.60;;
1296;SDS011;641;48.492;9.184;2022-09-01T03:00:54;21.17;;;15.33;;
1296;SDS011;641;48.492;9.184;2022-09-01T03:03:21;21.57;;;14.50;;
1296;SDS011;641;48.492;9.184;2022-09-01T03:05:49;19.87;;;13.83;;
1296;SDS011;641;48.492;9.184;2022-09-01T03:08:19;18.40;;;13.80;;
1296;SDS011;641;48.492;9.184;2022-09-01T03:10:46;17.93;;;12.60;;
1296;SDS011;641;48.492;9.184;2022-09-01T03:13:16;19.40;;;14.10;;
1296;SDS011;641;48.492;9.184;2022-09-01T03:15:44;17.90;;;12.60;;
1296;SDS011;641;48.492;9.184;2022-09-01T03:18:11;19.77;;;14.50;;
1296;SDS011;641;48.492;9.184;2022-09-01T03:20:39;19.13;;;13.10;;
1296;SDS011;641;48.492;9.184;2022-09-01T03:23:11;20.07;;;13.60;;
1296;SDS011;641;48.492;9.184;2022-09-01T03:25:39;19.60;;;13.70;;
1296;SDS011;641;48.492;9.184;2022-09-01T03:28:09;18.77;;;12.47;;
1296;SDS011;641;48.492;9.184;2022-09-01T03:30:37;19.27;;;12.70;;
1296;SDS011;641;48.492;9.184;2022-09-01T03:33:05;23.97;;;13.57;;
1296;SDS011;641;48.492;9.184;2022-09-01T03:35:31;19.30;;;13.70;;
1296;SDS011;641;48.492;9.184;2022-09-01T03:37:57;21.47;;;14.90;;
1296;SDS011;641;48.492;9.184;2022-09-01T03:40:30;17.33;;;12.93;;
1296;SDS011;641;48.492;9.184;2022-09-01T03:43:01;22.20;;;14.53;;
1296;SDS011;641;48.492;9.184;2022-09-01T03:45:29;31.07;;;15.40;;
1296;SDS011;641;48.492;9.184;2022-09-01T03:47:59;19.47;;;13.67;;
1296;SDS011;641;48.492;9.184;2022-09-01T03:50:25;20.50;;;14.50;;
1296;SDS011;641;48.492;9.184;2022-09-01T03:52:53;21.20;;;13.93;;
1296;SDS011;641;48.492;9.184;2022-09-01T03:55:25;19.00;;;13.50;;
1296;SDS011;641;48.492;9.184;2022-09-01T03:57:55;21.80;;;14.90;;
1296;SDS011;641;48.492;9.184;2022-09-01T04:00:23;21.40;;;11.90;;
1296;SDS011;641;48.492;9.184;2022-09-01T04:02:54;17.03;;;12.83;;
1296;SDS011;641;48.492;9.184;2022-09-01T04:05:22;16.83;;;11.13;;
1296;SDS011;641;48.492;9.184;2022-09-01T04:07:53;16.60;;;11.67;;
1296;SDS011;641;48.492;9.184;2022-09-01T04:10:22;22.20;;;15.30;;
1296;SDS011;641;48.492;9.184;2022-09-01T04:12:48;18.33;;;12.20;;
1296;SDS011;641;48.492;9.184;2022-09-01T04:15:15;20.53;;;13.20;;
1296;SDS011;641;48.492;9.184;2022-09-01T04:17:42;20.50;;;14.93;;
1296;SDS011;641;48.492;9.184;2022-09-01T04:20:27;19.53;;;14.00;;
1296;SDS011;641;48.492;9.184;2022-09-01T04:22:53;20.10;;;13.13;;
1296;SDS011;641;48.492;9.184;2022-09-01T04:25:19;18.40;;;13.43;;
1296;SDS011;641;48.492;9.184;2022-09-01T04:27:50;19.03;;;14.07;;
1296;SDS011;641;48.492;9.184;2022-09-01T04:30:19;18.33;;;12.63;;
1296;SDS011;641;48.492;9.184;2022-09-01T04:32:53;20.97;;;12.90;;
1296;SDS011;641;48.492;9.184;2022-09-01T04:35:20;17.57;;;12.90;;
1296;SDS011;641;48.492;9.184;2022-09-01T04:37:54;18.20;;;13.07;;
1296;SDS011;641;48.492;9.184;2022-09-01T04:40:19;18.43;;;12.90;;
1296;SDS011;641;48.492;9.184;2022-09-01T04:42:47;17.70;;;12.33;;
1296;SDS011;641;48.492;9.184;2022-09-01T04:45:13;18.87;;;13.60;;
1296;SDS011;641;48.492;9.184;2022-09-01T04:47:39;24.70;;;15.90;;
1296;SDS011;641;48.492;9.184;2022-09-01T04:50:07;21.13;;;14.83;;
1296;SDS011;641;48.492;9.184;2022-09-01T04:52:38;19.37;;;14.07;;
1296;SDS011;641;48.492;9.184;2022-09-01T04:55:08;19.40;;;13.23;;
1296;SDS011;641;48.492;9.184;2022-09-01T04:57:41;18.07;;;12.90;;
1296;SDS011;641;48.492;9.184;2022-09-01T05:00:11;17.73;;;13.13;;
1296;SDS011;641;48.492;9.184;2022-09-01T05:02:51;21.13;;;12.73;;
1296;SDS011;641;48.492;9.184;2022-09-01T05:05:19;16.60;;;11.60;;
1296;SDS011;641;48.492;9.184;2022-09-01T05:07:46;29.27;;;13.37;;
1296;SDS011;641;48.492;9.184;2022-09-01T05:10:15;20.70;;;14.70;;
1296;SDS011;641;48.492;9.184;2022-09-01T05:12:42;19.43;;;13.80;;
1296;SDS011;641;48.492;9.184;2022-09-01T05:15:10;25.63;;;13.00;;
1296;SDS011;641;48.492;9.184;2022-09-01T05:17:37;21.20;;;14.27;;
1296;SDS011;641;48.492;9.184;2022-09-01T05:20:04;20.83;;;15.33;;
1296;SDS011;641;48.492;9.184;2022-09-01T05:22:30;21.70;;;15.63;;
1296;SDS011;641;48.492;9.184;2022-09-01T05:25:00;22.57;;;15.10;;
1296;SDS011;641;48.492;9.184;2022-09-01T05:27:38;20.43;;;14.80;;
1296;SDS011;641;48.492;9.184;2022-09-01T05:30:05;23.93;;;14.87;;
1296;SDS011;641;48.492;9.184;2022-09-01T05:32:33;28.03;;;17.30;;
1296;SDS011;641;48.492;9.184;2022-09-01T05:35:01;22.27;;;15.70;;
1296;SDS011;641;48.492;9.184;2022-09-01T05:37:32;22.20;;;14.67;;
1296;SDS011;641;48.492;9.184;2022-09-01T05:40:00;20.70;;;14.50;;
1296;SDS011;641;48.492;9.184;2022-09-01T05:42:26;20.50;;;14.93;;
1296;SDS011;641;48.492;9.184;2022-09-01T05:44:52;22.33;;;14.17;;
1296;SDS011;641;48.492;9.184;2022-09-01T05:47:18;24.60;;;15.07;;
1296;SDS011;641;48.492;9.184;2022-09-01T05:49:45;22.50;;;16.07;;
1296;SDS011;641;48.492;9.184;2022-09-01T05:52:11;22.73;;;16.30;;
1296;SDS011;641;48.492;9.184;2022-09-01T05:54:36;26.33;;;19.00;;
1296;SDS011;641;48.492;9.184;2022-09-01T05:57:02;25.93;;;18.90;;
1296;SDS011;641;48.492;9.184;2022-09-01T05:59:28;25.90;;;18.90;;
1296;SDS011;641;48.492;9.184;2022-09-01T06:01:55;26.70;;;19.03;;
1296;SDS011;641;48.492;9.184;2022-09-01T06:04:22;25.63;;;18.70;;
1296;SDS011;641;48.492;9.184;2022-09-01T06:06:49;29.13;;;18.93;;
1296;SDS011;641;48.492;9.184;2022-09-01T06:09:17;26.30;;;19.97;;
1296;SDS011;641;48.492;9.184;2022-09-01T06:11:45;26.57;;;17.00;;
1296;SDS011;641;48.492;9.184;2022-09-01T06:14:11;26.27;;;19.00;;
1296;SDS011;641;48.492;9.184;2022-09-01T06:16:39;25.10;;;18.17;;
1296;SDS011;641;48.492;9.184;2022-09-01T06:19:06;27.80;;;17.97;;
1296;SDS011;641;48.492;9.184;2022-09-01T06:21:32;29.23;;;18.33;;
1296;SDS011;641;48.492;9.184;2022-09-01T06:23:58;26.83;;;18.80;;
1296;SDS011;641;48.492;9.184;2022-09-01T06:26:27;26.70;;;17.07;;
1296;SDS011;641;48.492;9.184;2022-09-01T06:28:55;26.13;;;18.00;;
1296;SDS011;641;48.492;9.184;2022-09-01T06:31:24;24.17;;;16.40;;
1296;SDS011;641;48.492;9.184;2022-09-01T06:33:52;24.53;;;16.63;;
1296;SDS011;641;48.492;9.184;2022-09-01T06:36:22;26.30;;;18.73;;
1296;SDS011;641;48.492;9.184;2022-09-01T06:38:50;26.43;;;18.77;;
1296;SDS011;641;48.492;9.184;2022-09-01T06:41:17;26.87;;;19.87;;
1296;SDS011;641;48.492;9.184;2022-09-01T06:43:47;34.17;;;22.07;;
1296;SDS011;641;48.492;9.184;2022-09-01T06:46:17;35.83;;;22.30;;
1296;SDS011;641;48.492;9.184;2022-09-01T06:48:44;27.40;;;19.70;;
1296;SDS011;641;48.492;9.184;2022-09-01T06:51:11;30.20;;;21.20;;
1296;SDS011;641;48.492;9.184;2022-09-01T06:53:42;29.10;;;20.23;;
1296;SDS011;641;48.492;9.184;2022-09-01T06:56:09;28.10;;;20.20;;
1296;SDS011;641;48.492;9.184;2022-09-01T06:58:41;31.57;;;21.60;;
1296;SDS011;641;48.492;9.184;2022-09-01T07:01:09;31.37;;;20.70;;
1296;SDS011;641;48.492;9.184;2022-09-01T07:03:44;32.30;;;21.90;;
1296;SDS011;641;48.492;9.184;2022-09-01T07:06:11;33.57;;;22.47;;
1296;SDS011;641;48.492;9.184;2022-09-01T07:08:38;29.27;;;21.47;;
1296;SDS011;641;48.492;9.184;2022-09-01T07:11:06;32.23;;;21.80;;
1296;SDS011;641;48.492;9.184;2022-09-01T07:13:38;29.50;;;21.17;;
1296;SDS011;641;48.492;9.184;2022-09-01T07:16:04;32.30;;;22.63;;
1296;SDS011;641;48.492;9.184;2022-09-01T07:18:30;34.50;;;23.57;;
1296;SDS011;641;48.492;9.184;2022-09-01T07:20:56;32.27;;;22.40;;
1296;SDS011;641;48.492;9.184;2022-09-01T07:23:22;31.63;;;21.27;;
1296;SDS011;641;48.492;9.184;2022-09-01T07:25:48;29.03;;;21.67;;
1296;SDS011;641;48.492;9.184;2022-09-01T07:28:19;32.27;;;22.43;;
1296;SDS011;641;48.492;9.184;2022-09-01T07:30:48;31.87;;;21.60;;
1296;SDS011;641;48.492;9.184;2022-09-01T07:33:16;33.20;;;22.60;;
1296;SDS011;641;48.492;9.184;2022-09-01T07:35:44;28.40;;;21.40;;
1296;SDS011;641;48.492;9.184;2022-09-01T07:38:10;30.87;;;20.80;;
1296;SDS011;641;48.492;9.184;2022-09-01T07:40:37;29.33;;;21.27;;
1296;SDS011;641;48.492;9.184;2022-09-01T07:43:07;28.03;;;20.67;;
1296;SDS011;641;48.492;9.184;2022-09-01T07:45:42;33.83;;;22.73;;
1296;SDS011;641;48.492;9.184;2022-09-01T07:48:10;29.87;;;20.53;;
1296;SDS011;641;48.492;9.184;2022-09-01T07:50:40;29.27;;;20.40;;
1296;SDS011;641;48.492;9.184;2022-09-01T07:53:15;28.90;;;20.40;;
1296;SDS011;641;48.492;9.184;2022-09-01T07:55:43;26.40;;;19.40;;
1296;SDS011;641;48.492;9.184;2022-09-01T07:58:11;24.60;;;17.90;;
1296;SDS011;641;48.492;9.184;2022-09-01T08:00:40;24.80;;;18.00;;
1296;SDS011;641;48.492;9.184;2022-09-01T08:03:14;23.97;;;16.97;;
1296;SDS011;641;48.492;9.184;2022-09-01T08:05:40;26.90;;;19.30;;
1296;SDS011;641;48.492;9.184;2022-09-01T08:08:07;28.10;;;19.43;;
1296;SDS011;641;48.492;9.184;2022-09-01T08:10:33;24.90;;;19.27;;
1296;SDS011;641;48.492;9.184;2022-09-01T08:13:02;26.60;;;19.17;;
1296;SDS011;641;48.492;9.184;2022-09-01T08:15:27;27.17;;;19.50;;
1296;SDS011;641;48.492;9.184;2022-09-01T08:17:53;26.87;;;17.97;;
1296;SDS011;641;48.492;9.184;2022-09-01T08:20:18;25.17;;;17.80;;
1296;SDS011;641;48.492;9.184;2022-09-01T08:22:44;31.83;;;18.63;;
1296;SDS011;641;48.492;9.184;2022-09-01T08:25:10;24.30;;;18.67;;
1296;SDS011;641;48.492;9.184;2022-09-01T08:27:36;21.37;;;14.27;;
1296;SDS011;641;48.492;9.184;2022-09-01T08:30:06;21.47;;;13.70;;
1296;SDS011;641;48.492;9.184;2022-09-01T08:32:34;20.67;;;14.63;;
1296;SDS011;641;48.492;9.184;2022-09-01T08:35:00;20.80;;;14.10;;
1296;SDS011;641;48.492;9.184;2022-09-01T08:37:26;18.07;;;13.00;;
1296;SDS011;641;48.492;9.184;2022-09-01T08:39:52;20.73;;;13.90;;
1296;SDS011;641;48.492;9.184;2022-09-01T08:43:01;21.00;;;12.87;;
1296;SDS011;641;48.492;9.184;2022-09-01T08:45:49;23.70;;;13.67;;
1296;SDS011;641;48.492;9.184;2022-09-01T08:48:21;24.43;;;15.07;;
1296;SDS011;641;48.492;9.184;2022-09-01T08:53:51;14.63;;;9.40;;
1296;SDS011;641;48.492;9.184;2022-09-01T08:56:46;17.53;;;9.50;;
1296;SDS011;641;48.492;9.184;2022-09-01T08:59:16;14.37;;;9.07;;
1296;SDS011;641;48.492;9.184;2022-09-01T09:10:23;13.33;;;7.77;;
1296;SDS011;641;48.492;9.184;2022-09-01T09:15:53;14.43;;;7.33;;
1296;SDS011;641;48.492;9.184;2022-09-01T09:18:36;11.33;;;7.10;;
1296;SDS011;641;48.492;9.184;2022-09-01T09:21:19;11.33;;;5.80;;
1296;SDS011;641;48.492;9.184;2022-09-01T09:26:49;11.30;;;6.13;;
1296;SDS011;641;48.492;9.184;2022-09-01T09:29:15;12.50;;;6.30;;
1296;SDS011;641;48.492;9.184;2022-09-01T09:31:42;10.63;;;5.40;;
1296;SDS011;641;48.492;9.184;2022-09-01T09:34:55;13.47;;;5.77;;
1296;SDS011;641;48.492;9.184;2022-09-01T09:40:10;10.30;;;4.07;;
1296;SDS011;641;48.492;9.184;2022-09-01T09:42:40;10.50;;;5.13;;
1296;SDS011;641;48.492;9.184;2022-09-01T09:45:29;11.60;;;4.40;;
1296;SDS011;641;48.492;9.184;2022-09-01T09:48:08;11.77;;;3.83;;
1296;SDS011;641;48.492;9.184;2022-09-01T09:50:50;14.50;;;4.47;;
1296;SDS011;641;48.492;9.184;2022-09-01T09:53:26;8.47;;;3.50;;
1296;SDS011;641;48.492;9.184;2022-09-01T09:55:57;7.60;;;3.10;;
1296;SDS011;641;48.492;9.184;2022-09-01T09:58:39;8.33;;;3.20;;
1296;SDS011;641;48.492;9.184;2022-09-01T10:03:59;7.93;;;3.23;;
1296;SDS011;641;48.492;9.184;2022-09-01T10:06:32;7.77;;;3.37;;
1296;SDS011;641;48.492;9.184;2022-09-01T10:09:42;9.30;;;4.23;;
1296;SDS011;641;48.492;9.184;2022-09-01T10:11:51;10.40;;;4.00;;
1296;SDS011;641;48.492;9.184;2022-09-01T10:14:23;7.70;;;3.20;;
1296;SDS011;641;48.492;9.184;2022-09-01T10:17:04;7.90;;;3.10;;
1296;SDS011;641;48.492;9.184;2022-09-01T10:19:34;7.50;;;3.13;;
1296;SDS011;641;48.492;9.184;2022-09-01T10:22:05;6.93;;;2.90;;
1296;SDS011;641;48.492;9.184;2022-09-01T10:24:34;8.30;;;3.30;;
1296;SDS011;641;48.492;9.184;2022-09-01T10:27:04;8.00;;;3.10;;
1296;SDS011;641;48.492;9.184;2022-09-01T10:29:42;8.67;;;3.33;;
1296;SDS011;641;48.492;9.184;2022-09-01T10:32:17;7.60;;;3.07;;
1296;SDS011;641;48.492;9.184;2022-09-01T10:34:45;8.27;;;3.20;;
1296;SDS011;641;48.492;9.184;2022-09-01T10:37:13;7.73;;;2.97;;
1296;SDS011;641;48.492;9.184;2022-09-01T10:42:37;8.80;;;3.80;;
1296;SDS011;641;48.492;9.184;2022-09-01T10:45:06;7.37;;;3.20;;
1296;SDS011;641;48.492;9.184;2022-09-01T10:50:52;7.87;;;3.00;;
1296;SDS011;641;48.492;9.184;2022-09-01T10:56:15;8.57;;;3.00;;
1296;SDS011;641;48.492;9.184;2022-09-01T11:04:10;7.97;;;3.77;;
1296;SDS011;641;48.492;9.184;2022-09-01T11:20:33;9.17;;;3.27;;
1296;SDS011;641;48.492;9.184;2022-09-01T11:23:44;8.63;;;4.07;;
1296;SDS011;641;48.492;9.184;2022-09-01T11:25:55;8.40;;;3.43;;
1296;SDS011;641;48.492;9.184;2022-09-01T11:33:44;8.70;;;4.23;;
1296;SDS011;641;48.492;9.184;2022-09-01T11:47:15;8.70;;;4.17;;
1296;SDS011;641;48.492;9.184;2022-09-01T11:49:50;8.70;;;3.40;;
1296;SDS011;641;48.492;9.184;2022-09-01T11:52:22;8.00;;;3.40;;
1296;SDS011;641;48.492;9.184;2022-09-01T11:54:50;10.87;;;4.60;;
1296;SDS011;641;48.492;9.184;2022-09-01T11:59:50;9.70;;;3.60;;
1296;SDS011;641;48.492;9.184;2022-09-01T12:02:20;9.53;;;3.73;;
1296;SDS011;641;48.492;9.184;2022-09-01T12:04:50;8.67;;;4.23;;
1296;SDS011;641;48.492;9.184;2022-09-01T12:07:27;7.40;;;3.10;;
1296;SDS011;641;48.492;9.184;2022-09-01T12:10:00;8.70;;;3.50;;
1296;SDS011;641;48.492;9.184;2022-09-01T12:15:20;7.53;;;3.10;;
1296;SDS011;641;48.492;9.184;2022-09-01T12:17:47;8.00;;;3.50;;
1296;SDS011;641;48.492;9.184;2022-09-01T12:22:45;8.97;;;3.80;;
1296;SDS011;641;48.492;9.184;2022-09-01T12:28:06;9.17;;;3.70;;
1296;SDS011;641;48.492;9.184;2022-09-01T12:30:33;9.43;;;3.50;;
1296;SDS011;641;48.492;9.184;2022-09-01T12:33:03;7.90;;;3.57;;
1296;SDS011;641;48.492;9.184;2022-09-01T12:35:30;9.13;;;4.37;;
1296;SDS011;641;48.492;9.184;2022-09-01T12:40:54;7.03;;;3.10;;
1296;SDS011;641;48.492;9.184;2022-09-01T12:46:00;7.97;;;3.50;;
1296;SDS011;641;48.492;9.184;2022-09-01T12:48:34;8.10;;;3.30;;
1296;SDS011;641;48.492;9.184;2022-09-01T12:51:21;9.90;;;3.87;;
1296;SDS011;641;48.492;9.184;2022-09-01T12:53:55;7.37;;;2.90;;
1296;SDS011;641;48.492;9.184;2022-09-01T12:56:30;7.37;;;3.07;;
1296;SDS011;641;48.492;9.184;2022-09-01T12:59:14;7.70;;;3.37;;
1296;SDS011;641;48.492;9.184;2022-09-01T13:01:46;7.70;;;3.13;;
1296;SDS011;641;48.492;9.184;2022-09-01T13:06:40;7.20;;;2.90;;
1296;SDS011;641;48.492;9.184;2022-09-01T13:09:06;7.53;;;3.30;;
1296;SDS011;641;48.492;9.184;2022-09-01T13:11:32;7.73;;;2.93;;
1296;SDS011;641;48.492;9.184;2022-09-01T13:13:58;8.40;;;3.27;;
1296;SDS011;641;48.492;9.184;2022-09-01T13:16:25;7.50;;;3.00;;
1296;SDS011;641;48.492;9.184;2022-09-01T13:18:51;7.70;;;3.10;;
1296;SDS011;641;48.492;9.184;2022-09-01T13:21:16;13.17;;;3.07;;
1296;SDS011;641;48.492;9.184;2022-09-01T13:23:42;7.27;;;2.93;;
1296;SDS011;641;48.492;9.184;2022-09-01T13:26:08;8.70;;;3.23;;
1296;SDS011;641;48.492;9.184;2022-09-01T13:28:35;8.73;;;3.07;;
1296;SDS011;641;48.492;9.184;2022-09-01T13:31:02;7.73;;;2.80;;
1296;SDS011;641;48.492;9.184;2022-09-01T13:33:29;7.63;;;3.10;;
1296;SDS011;641;48.492;9.184;2022-09-01T13:35:55;8.00;;;3.80;;
1296;SDS011;641;48.492;9.184;2022-09-01T13:38:21;7.83;;;3.50;;
1296;SDS011;641;48.492;9.184;2022-09-01T13:40:47;7.70;;;3.67;;
1296;SDS011;641;48.492;9.184;2022-09-01T13:43:15;7.83;;;3.10;;
1296;SDS011;641;48.492;9.184;2022-09-01T13:45:43;9.10;;;3.23;;
1296;SDS011;641;48.492;9.184;2022-09-01T13:48:09;8.13;;;3.73;;
1296;SDS011;641;48.492;9.184;2022-09-01T13:50:35;10.10;;;3.40;;
1296;SDS011;641;48.492;9.184;2022-09-01T13:53:02;8.20;;;3.67;;
1296;SDS011;641;48.492;9.184;2022-09-01T13:55:30;8.50;;;3.60;;
1296;SDS011;641;48.492;9.184;2022-09-01T13:57:57;8.90;;;4.10;;
1296;SDS011;641;48.492;9.184;2022-09-01T14:00:25;7.27;;;3.23;;
1296;SDS011;641;48.492;9.184;2022-09-01T14:02:57;7.00;;;3.03;;
1296;SDS011;641;48.492;9.184;2022-09-01T14:05:28;7.00;;;3.00;;
1296;SDS011;641;48.492;9.184;2022-09-01T14:07:56;8.13;;;3.17;;
1296;SDS011;641;48.492;9.184;2022-09-01T14:10:23;8.17;;;3.80;;
1296;SDS011;641;48.492;9.184;2022-09-01T14:12:50;7.70;;;3.23;;
1296;SDS011;641;48.492;9.184;2022-09-01T14:15:16;7.43;;;3.00;;
1296;SDS011;641;48.492;9.184;2022-09-01T14:17:43;10.00;;;3.40;;
1296;SDS011;641;48.492;9.184;2022-09-01T14:20:15;8.40;;;3.37;;
1296;SDS011;641;48.492;9.184;2022-09-01T14:22:45;9.23;;;3.07;;
1296;SDS011;641;48.492;9.184;2022-09-01T14:25:12;8.70;;;3.20;;
1296;SDS011;641;48.492;9.184;2022-09-01T14:27:38;8.17;;;3.40;;
1296;SDS011;641;48.492;9.184;2022-09-01T14:30:04;7.83;;;2.90;;
1296;SDS011;641;48.492;9.184;2022-09-01T14:32:32;7.13;;;2.90;;
1296;SDS011;641;48.492;9.184;2022-09-01T14:34:58;7.73;;;2.77;;
1296;SDS011;641;48.492;9.184;2022-09-01T14:37:24;8.53;;;3.50;;
1296;SDS011;641;48.492;9.184;2022-09-01T14:39:54;7.60;;;2.93;;
1296;SDS011;641;48.492;9.184;2022-09-01T14:42:21;7.73;;;3.27;;
1296;SDS011;641;48.492;9.184;2022-09-01T14:44:52;8.07;;;3.30;;
1296;SDS011;641;48.492;9.184;2022-09-01T14:47:18;9.13;;;4.27;;
1296;SDS011;641;48.492;9.184;2022-09-01T14:49:45;7.90;;;3.37;;
1296;SDS011;641;48.492;9.184;2022-09-01T14:52:11;8.30;;;3.80;;
1296;SDS011;641;48.492;9.184;2022-09-01T14:54:38;8.20;;;3.50;;
1296;SDS011;641;48.492;9.184;2022-09-01T14:57:06;8.13;;;3.87;;
1296;SDS011;641;48.492;9.184;2022-09-01T14:59:32;8.13;;;3.90;;
1296;SDS011;641;48.492;9.184;2022-09-01T15:01:59;7.87;;;3.50;;
1296;SDS011;641;48.492;9.184;2022-09-01T15:04:24;8.20;;;3.80;;
1296;SDS011;641;48.492;9.184;2022-09-01T15:06:51;7.70;;;3.40;;
1296;SDS011;641;48.492;9.184;2022-09-01T15:09:17;8.93;;;3.50;;
1296;SDS011;641;48.492;9.184;2022-09-01T15:11:43;9.53;;;3.83;;
1296;SDS011;641;48.492;9.184;2022-09-01T15:14:09;8.97;;;3.80;;
1296;SDS011;641;48.492;9.184;2022-09-01T15:16:35;8.10;;;3.90;;
1296;SDS011;641;48.492;9.184;2022-09-01T15:19:05;7.53;;;3.50;;
1296;SDS011;641;48.492;9.184;2022-09-01T15:21:34;7.80;;;3.53;;
1296;SDS011;641;48.492;9.184;2022-09-01T15:24:01;8.90;;;3.07;;
1296;SDS011;641;48.492;9.184;2022-09-01T15:26:27;7.43;;;3.23;;
1296;SDS011;641;48.492;9.184;2022-09-01T15:28:54;9.10;;;4.13;;
1296;SDS011;641;48.492;9.184;2022-09-01T15:31:21;9.33;;;3.77;;
1296;SDS011;641;48.492;9.184;2022-09-01T15:33:48;9.30;;;3.57;;
1296;SDS011;641;48.492;9.184;2022-09-01T15:36:19;10.13;;;3.40;;
1296;SDS011;641;48.492;9.184;2022-09-01T15:38:46;9.00;;;3.87;;
1296;SDS011;641;48.492;9.184;2022-09-01T15:41:16;7.97;;;3.40;;
1296;SDS011;641;48.492;9.184;2022-09-01T15:43:43;8.67;;;3.50;;
1296;SDS011;641;48.492;9.184;2022-09-01T15:46:10;9.37;;;4.30;;
1296;SDS011;641;48.492;9.184;2022-09-01T15:48:36;17.50;;;3.43;;
1296;SDS011;641;48.492;9.184;2022-09-01T15:51:09;7.90;;;3.57;;
1296;SDS011;641;48.492;9.184;2022-09-01T15:53:55;8.70;;;3.33;;
1296;SDS011;641;48.492;9.184;2022-09-01T15:56:24;7.63;;;3.80;;
1296;SDS011;641;48.492;9.184;2022-09-01T15:58:50;8.30;;;4.10;;
1296;SDS011;641;48.492;9.184;2022-09-01T16:01:19;8.00;;;3.77;;
1296;SDS011;641;48.492;9.184;2022-09-01T16:03:46;8.60;;;3.93;;
1296;SDS011;641;48.492;9.184;2022-09-01T16:06:12;7.93;;;3.40;;
1296;SDS011;641;48.492;9.184;2022-09-01T16:08:39;8.60;;;3.40;;
1296;SDS011;641;48.492;9.184;2022-09-01T16:11:05;7.90;;;3.63;;
1296;SDS011;641;48.492;9.184;2022-09-01T16:13:37;8.00;;;3.70;;
1296;SDS011;641;48.492;9.184;2022-09-01T16:18:54;9.93;;;3.90;;
1296;SDS011;641;48.492;9.184;2022-09-01T16:21:29;8.83;;;3.07;;
1296;SDS011;641;48.492;9.184;2022-09-01T16:24:02;8.27;;;3.50;;
1296;SDS011;641;48.492;9.184;2022-09-01T16:26:32;8.70;;;4.30;;
1296;SDS011;641;48.492;9.184;2022-09-01T16:29:01;8.30;;;3.57;;
1296;SDS011;641;48.492;9.184;2022-09-01T16:31:31;8.73;;;3.70;;
1296;SDS011;641;48.492;9.184;2022-09-01T16:33:58;7.53;;;3.57;;
1296;SDS011;641;48.492;9.184;2022-09-01T16:39:14;8.37;;;4.33;;
1296;SDS011;641;48.492;9.184;2022-09-01T16:50:29;8.97;;;3.97;;
1296;SDS011;641;48.492;9.184;2022-09-01T16:52:51;8.10;;;3.77;;
1296;SDS011;641;48.492;9.184;2022-09-01T17:04:18;10.97;;;4.23;;
1296;SDS011;641;48.492;9.184;2022-09-01T17:07:04;8.30;;;3.70;;
1296;SDS011;641;48.492;9.184;2022-09-01T17:14:58;11.10;;;6.93;;
1296;SDS011;641;48.492;9.184;2022-09-01T17:17:36;8.60;;;4.17;;
1296;SDS011;641;48.492;9.184;2022-09-01T17:20:07;8.43;;;4.03;;
1296;SDS011;641;48.492;9.184;2022-09-01T17:22:34;9.60;;;4.20;;
1296;SDS011;641;48.492;9.184;2022-09-01T17:25:03;8.67;;;4.30;;
1296;SDS011;641;48.492;9.184;2022-09-01T17:30:12;8.20;;;3.77;;